createdAt,value
2022-10-08T00:00:03.218Z,11.2
2022-10-08T00:01:20.323Z,12.5
2022-10-08T00:02:37.428Z,11
2022-10-08T00:03:54.533Z,11
2022-10-08T00:05:11.638Z,10.7
2022-10-08T00:06:28.742Z,11
2022-10-08T00:07:45.848Z,11.8
2022-10-08T00:09:02.952Z,11.4
2022-10-08T00:10:20.057Z,11.1
2022-10-08T00:11:37.162Z,11.4
2022-10-08T00:12:54.267Z,11.4
2022-10-08T00:14:11.372Z,11.6
2022-10-08T00:15:28.477Z,11
2022-10-08T00:16:44.598Z,11.2
2022-10-08T00:18:01.703Z,11.4
2022-10-08T00:19:18.808Z,11
2022-10-08T00:20:35.912Z,11.4
2022-10-08T00:21:53.017Z,10.8
2022-10-08T00:23:10.122Z,10.8
2022-10-08T00:24:27.227Z,11
2022-10-08T00:25:44.332Z,10.8
2022-10-08T00:27:01.436Z,11
2022-10-08T00:28:18.541Z,10.9
2022-10-08T00:29:35.646Z,10.9
2022-10-08T00:30:52.751Z,11.1
2022-10-08T00:32:09.856Z,11
2022-10-08T00:33:25.977Z,11.3
2022-10-08T00:34:43.082Z,12
2022-10-08T00:36:00.187Z,12.1
2022-10-08T00:37:17.292Z,14.7
2022-10-08T00:38:34.396Z,13
2022-10-08T00:39:51.501Z,11.4
2022-10-08T00:41:08.606Z,13.6
2022-10-08T00:42:25.711Z,12.7
2022-10-08T00:43:42.816Z,10.6
2022-10-08T00:44:59.920Z,10.9
2022-10-08T00:46:17.025Z,12.8
2022-10-08T00:47:34.130Z,12.4
2022-10-08T00:48:51.235Z,10.3
2022-10-08T00:50:07.356Z,10.1
2022-10-08T00:51:24.460Z,10.2
2022-10-08T00:52:41.565Z,12.3
2022-10-08T00:53:58.670Z,13
2022-10-08T00:55:15.775Z,10.5
2022-10-08T00:56:32.880Z,11
2022-10-08T00:57:49.984Z,11.3
2022-10-08T00:59:07.089Z,12.1
2022-10-08T01:00:24.194Z,10.8
2022-10-08T01:01:41.299Z,11.6
2022-10-08T01:02:58.404Z,11.9
2022-10-08T01:04:15.509Z,12
2022-10-08T01:05:32.614Z,12
2022-10-08T01:06:48.735Z,14.4
2022-10-08T01:08:05.840Z,12.8
2022-10-08T01:09:22.944Z,11.6
2022-10-08T01:10:40.049Z,11.7
2022-10-08T01:11:57.154Z,11.5
2022-10-08T01:13:14.259Z,12.2
2022-10-08T01:14:31.364Z,11.8
2022-10-08T01:15:48.469Z,11.1
2022-10-08T01:17:05.573Z,13.4
2022-10-08T01:18:22.678Z,13.2
2022-10-08T01:19:39.783Z,11.3
2022-10-08T01:20:56.888Z,12.9
2022-10-08T01:22:13.993Z,10.6
2022-10-08T01:23:30.114Z,11.1
2022-10-08T01:24:47.219Z,11.7
2022-10-08T01:26:04.324Z,11.9
2022-10-08T01:27:21.429Z,10.6
2022-10-08T01:28:38.533Z,12.2
2022-10-08T01:29:55.638Z,11.3
2022-10-08T01:31:12.743Z,10.8
2022-10-08T01:32:29.849Z,10.7
2022-10-08T01:33:46.954Z,13.2
2022-10-08T01:35:04.059Z,10.2
2022-10-08T01:36:21.164Z,11.8
2022-10-08T01:37:38.269Z,11.6
2022-10-08T01:38:55.374Z,11.9
2022-10-08T01:40:11.495Z,11.5
2022-10-08T01:41:28.600Z,10.3
2022-10-08T01:42:45.705Z,10.4
2022-10-08T01:44:02.810Z,12.1
2022-10-08T01:45:19.915Z,13.5
2022-10-08T01:46:37.019Z,10.3
2022-10-08T01:47:54.125Z,11.2
2022-10-08T01:49:11.230Z,10.7
2022-10-08T01:50:28.334Z,11.2
2022-10-08T01:51:45.439Z,11.1
2022-10-08T01:53:02.544Z,11.6
2022-10-08T01:54:19.649Z,12
2022-10-08T01:55:36.754Z,11.8
2022-10-08T01:56:52.875Z,13.2
2022-10-08T01:58:09.980Z,10.4
2022-10-08T01:59:27.085Z,14
2022-10-08T02:00:44.190Z,11.4
2022-10-08T02:02:01.295Z,10.9
2022-10-08T02:03:18.399Z,11.2
2022-10-08T02:04:35.504Z,11.5
2022-10-08T02:05:52.609Z,11.6
2022-10-08T02:07:09.714Z,11.9
2022-10-08T02:08:26.819Z,10.9
2022-10-08T02:09:43.924Z,12.7
2022-10-08T02:11:01.029Z,12.8
2022-10-08T02:12:18.134Z,10.7
2022-10-08T02:13:34.255Z,13.2
2022-10-08T02:14:51.360Z,12
2022-10-08T02:16:08.465Z,11.7
2022-10-08T02:17:25.570Z,13.9
2022-10-08T02:18:42.676Z,10.7
2022-10-08T02:19:59.781Z,10.5
2022-10-08T02:21:16.886Z,11.9
2022-10-08T02:22:33.991Z,10.9
2022-10-08T02:23:51.096Z,10.4
2022-10-08T02:25:08.201Z,11.8
2022-10-08T02:26:25.306Z,10.8
2022-10-08T02:27:42.411Z,9.6
2022-10-08T02:28:59.516Z,9.8
2022-10-08T02:30:15.637Z,10
2022-10-08T02:31:32.742Z,10.6
2022-10-08T02:32:49.848Z,9.6
2022-10-08T02:34:06.953Z,9.9
2022-10-08T02:35:24.058Z,9.5
2022-10-08T02:36:41.162Z,11.7
2022-10-08T02:37:57.283Z,11.7
2022-10-08T02:39:14.388Z,10.9
2022-10-08T02:40:31.493Z,10.6
2022-10-08T02:41:48.598Z,10.9
2022-10-08T02:43:05.703Z,10.1
2022-10-08T02:44:22.808Z,10.7
2022-10-08T02:45:39.913Z,10.7
2022-10-08T02:46:57.018Z,10.4
2022-10-08T02:48:14.123Z,10.7
2022-10-08T02:49:31.228Z,9.9
2022-10-08T02:50:48.333Z,9.9
2022-10-08T02:52:05.438Z,10
2022-10-08T02:53:22.543Z,9.8
2022-10-08T02:54:38.664Z,11.7
2022-10-08T02:55:55.769Z,11
2022-10-08T02:57:12.874Z,11.5
2022-10-08T02:58:29.978Z,10.6
2022-10-08T02:59:47.083Z,9.7
2022-10-08T03:01:04.188Z,14.1
2022-10-08T03:02:21.293Z,13.6
2022-10-08T03:03:38.398Z,12.7
2022-10-08T03:04:55.503Z,13.8
2022-10-08T03:06:12.608Z,11.5
2022-10-08T03:07:29.713Z,11.9
2022-10-08T03:08:46.818Z,13.6
2022-10-08T03:10:03.923Z,12.5
2022-10-08T03:11:20.044Z,12.5
2022-10-08T03:12:37.149Z,15.7
2022-10-08T03:13:54.254Z,12.7
2022-10-08T03:15:11.359Z,13.7
2022-10-08T03:16:28.464Z,12.8
2022-10-08T03:17:45.569Z,13.3
2022-10-08T03:19:02.674Z,13.2
2022-10-08T03:20:19.779Z,13
2022-10-08T03:21:36.884Z,14.8
2022-10-08T03:22:53.987Z,12.2
2022-10-08T03:24:11.092Z,11.5
2022-10-08T03:25:28.197Z,11.8
2022-10-08T03:26:45.302Z,13.6
2022-10-08T03:28:01.423Z,12
2022-10-08T03:29:18.528Z,12.8
2022-10-08T03:30:35.633Z,11.6
2022-10-08T03:31:52.739Z,11.5
2022-10-08T03:33:09.844Z,12.7
2022-10-08T03:34:26.949Z,11.5
2022-10-08T03:35:44.054Z,10.8
2022-10-08T03:37:01.159Z,11.5
2022-10-08T03:38:18.264Z,11.3
2022-10-08T03:39:35.369Z,13.4
2022-10-08T03:40:52.474Z,12.7
2022-10-08T03:42:09.579Z,12.4
2022-10-08T03:43:26.684Z,12
2022-10-08T03:44:42.805Z,10.7
2022-10-08T03:45:59.910Z,10.2
2022-10-08T03:47:17.015Z,10.1
2022-10-08T03:48:34.120Z,10.7
2022-10-08T03:49:51.224Z,10.1
2022-10-08T03:51:08.330Z,10.5
2022-10-08T03:52:25.434Z,10.9
2022-10-08T03:53:42.539Z,10.7
2022-10-08T03:54:59.644Z,11.7
2022-10-08T03:56:16.749Z,10.5
2022-10-08T03:57:33.854Z,10.1
2022-10-08T03:58:50.959Z,12.1
2022-10-08T04:00:08.064Z,10.1
2022-10-08T04:01:24.185Z,12.8
2022-10-08T04:02:41.290Z,11.9
2022-10-08T04:03:58.395Z,8.9
2022-10-08T04:05:15.499Z,10.7
2022-10-08T04:06:32.604Z,10.8
2022-10-08T04:07:49.709Z,10.3
2022-10-08T04:09:06.814Z,10.1
2022-10-08T04:10:23.919Z,10.3
2022-10-08T04:11:41.024Z,12.3
2022-10-08T04:12:58.129Z,11.9
2022-10-08T04:14:15.235Z,9.8
2022-10-08T04:15:32.340Z,12
2022-10-08T04:16:49.445Z,9.7
2022-10-08T04:18:05.566Z,9.8
2022-10-08T04:19:22.671Z,12.4
2022-10-08T04:20:39.776Z,10.2
2022-10-08T04:21:56.880Z,9.7
2022-10-08T04:23:13.986Z,11.2
2022-10-08T04:24:31.091Z,10.6
2022-10-08T04:25:48.196Z,9.1
2022-10-08T04:27:05.301Z,10.1
2022-10-08T04:28:22.406Z,9.7
2022-10-08T04:29:39.511Z,9
2022-10-08T04:30:56.615Z,9
2022-10-08T04:32:13.720Z,8.7
2022-10-08T04:33:30.824Z,11.2
2022-10-08T04:34:46.945Z,10.2
2022-10-08T04:36:04.050Z,10.7
2022-10-08T04:37:21.154Z,12.2
2022-10-08T04:38:38.259Z,9.5
2022-10-08T04:39:55.363Z,9.5
2022-10-08T04:41:12.468Z,9.3
2022-10-08T04:42:29.573Z,11.2
2022-10-08T04:43:46.677Z,10.3
2022-10-08T04:45:03.782Z,12.7
2022-10-08T04:46:20.887Z,9.5
2022-10-08T04:47:37.991Z,9.8
2022-10-08T04:48:55.096Z,9.9
2022-10-08T04:50:12.200Z,10
2022-10-08T04:51:28.321Z,10.1
2022-10-08T04:52:45.425Z,10
2022-10-08T04:54:02.530Z,10.7
2022-10-08T04:55:19.634Z,10.2
2022-10-08T04:56:36.739Z,11.9
2022-10-08T04:57:53.844Z,9.7
2022-10-08T04:59:10.948Z,12.5
2022-10-08T05:00:28.052Z,10.8
2022-10-08T05:01:45.157Z,10.4
2022-10-08T05:03:02.261Z,11.4
2022-10-08T05:04:19.366Z,11.5
2022-10-08T05:05:36.470Z,11.2
2022-10-08T05:06:53.575Z,10.9
2022-10-08T05:08:09.695Z,13
2022-10-08T05:09:26.800Z,11.5
2022-10-08T05:10:43.905Z,12.4
2022-10-08T05:12:01.009Z,11.9
2022-10-08T05:13:18.114Z,10.6
2022-10-08T05:14:35.218Z,12.2
2022-10-08T05:15:52.323Z,10.2
2022-10-08T05:17:09.427Z,10.6
2022-10-08T05:18:26.532Z,11.2
2022-10-08T05:19:43.637Z,15.8
2022-10-08T05:21:00.741Z,14.8
2022-10-08T05:22:17.845Z,11.1
2022-10-08T05:23:34.950Z,11.7
2022-10-08T05:24:51.071Z,12
2022-10-08T05:26:08.175Z,9.9
2022-10-08T05:27:25.280Z,11.8
2022-10-08T05:28:42.384Z,9.7
2022-10-08T05:29:59.489Z,9.4
2022-10-08T05:31:16.594Z,10.4
2022-10-08T05:32:33.698Z,11.2
2022-10-08T05:33:50.803Z,11.9
2022-10-08T05:35:07.907Z,9.6
2022-10-08T05:36:25.012Z,9.5
2022-10-08T05:37:42.116Z,10.9
2022-10-08T05:38:59.221Z,10
2022-10-08T05:40:16.325Z,9.8
2022-10-08T05:41:32.446Z,9.4
2022-10-08T05:42:49.551Z,9.5
2022-10-08T05:44:06.655Z,10.7
2022-10-08T05:45:23.759Z,10
2022-10-08T05:46:40.862Z,10.2
2022-10-08T05:47:57.966Z,10.2
2022-10-08T05:49:15.071Z,10.2
2022-10-08T05:50:32.175Z,10.3
2022-10-08T05:51:49.280Z,10
2022-10-08T05:53:06.385Z,10.9
2022-10-08T05:54:23.489Z,10.3
2022-10-08T05:55:40.594Z,11.4
2022-10-08T05:56:57.698Z,11.3
2022-10-08T05:58:13.819Z,11.5
2022-10-08T05:59:30.923Z,10.2
2022-10-08T06:00:48.028Z,10.1
2022-10-08T06:02:05.132Z,11.8
2022-10-08T06:03:22.237Z,11
2022-10-08T06:04:39.342Z,12.2
2022-10-08T06:05:56.446Z,13.8
2022-10-08T06:07:13.551Z,13.8
2022-10-08T06:08:30.655Z,14
2022-10-08T06:09:47.759Z,13.3
2022-10-08T06:11:04.864Z,15
2022-10-08T06:12:21.968Z,17.4
2022-10-08T06:13:39.073Z,17.6
2022-10-08T06:14:55.194Z,18.8
2022-10-08T06:16:12.298Z,17.6
2022-10-08T06:17:29.403Z,25.4
2022-10-08T06:18:46.507Z,22.8
2022-10-08T06:20:03.612Z,15.9
2022-10-08T06:21:20.716Z,20.2
2022-10-08T06:22:37.821Z,15.9
2022-10-08T06:23:54.925Z,11.9
2022-10-08T06:25:12.029Z,12.8
2022-10-08T06:26:29.134Z,12.3
2022-10-08T06:27:46.239Z,11.3
2022-10-08T06:29:03.344Z,13.6
2022-10-08T06:30:20.449Z,12.1
2022-10-08T06:31:36.569Z,10.7
2022-10-08T06:32:53.674Z,9.9
2022-10-08T06:34:10.778Z,13.2
2022-10-08T06:35:27.883Z,11.3
2022-10-08T06:36:44.987Z,10.5
2022-10-08T06:38:02.092Z,9.8
2022-10-08T06:39:19.196Z,10.3
2022-10-08T06:40:36.301Z,12.2
2022-10-08T06:41:53.405Z,10.9
2022-10-08T06:43:10.510Z,12.6
2022-10-08T06:44:27.614Z,9.5
2022-10-08T06:45:44.718Z,9.4
2022-10-08T06:47:01.823Z,9.9
2022-10-08T06:48:17.943Z,11.4
2022-10-08T06:49:35.048Z,11.4
2022-10-08T06:50:52.153Z,11.8
2022-10-08T06:52:09.257Z,10.4
2022-10-08T06:53:26.361Z,10.6
2022-10-08T06:54:43.466Z,10.4
2022-10-08T06:55:59.586Z,10.6
2022-10-08T06:57:16.691Z,10.8
2022-10-08T06:58:33.795Z,10.7
2022-10-08T06:59:50.899Z,12.5
2022-10-08T07:01:08.004Z,10.1
2022-10-08T07:02:25.109Z,10.8
2022-10-08T07:03:42.213Z,11.4
2022-10-08T07:04:59.317Z,10
2022-10-08T07:06:16.422Z,12.8
2022-10-08T07:07:33.526Z,11.4
2022-10-08T07:08:50.630Z,10.8
2022-10-08T07:10:07.735Z,11.9
2022-10-08T07:11:24.839Z,10.7
2022-10-08T07:12:40.960Z,9.7
2022-10-08T07:13:58.064Z,10.2
2022-10-08T07:15:15.169Z,9.8
2022-10-08T07:16:32.273Z,9.6
2022-10-08T07:17:49.378Z,12.6
2022-10-08T07:19:06.483Z,9.4
2022-10-08T07:20:23.587Z,11.4
2022-10-08T07:21:40.691Z,10.1
2022-10-08T07:22:57.796Z,9.9
2022-10-08T07:24:14.901Z,9.8
2022-10-08T07:25:32.006Z,10.4
2022-10-08T07:26:49.110Z,10.5
2022-10-08T07:28:06.214Z,10.3
2022-10-08T07:29:22.335Z,10.5
2022-10-08T07:30:39.439Z,11.1
2022-10-08T07:31:56.544Z,11.2
2022-10-08T07:33:13.648Z,10.2
2022-10-08T07:34:30.753Z,12.3
2022-10-08T07:35:47.857Z,12.1
2022-10-08T07:37:04.961Z,12.5
2022-10-08T07:38:22.066Z,12.5
2022-10-08T07:39:39.170Z,12.5
2022-10-08T07:40:56.274Z,13.1
2022-10-08T07:42:13.378Z,13
2022-10-08T07:43:30.483Z,12.9
2022-10-08T07:44:47.588Z,14.1
2022-10-08T07:46:03.708Z,13.2
2022-10-08T07:47:20.813Z,14.4
2022-10-08T07:48:37.917Z,15.3
2022-10-08T07:49:55.022Z,15.3
2022-10-08T07:51:12.126Z,15.5
2022-10-08T07:52:29.231Z,15.5
2022-10-08T07:53:46.335Z,15.6
2022-10-08T07:55:03.440Z,16.2
2022-10-08T07:56:20.544Z,15.6
2022-10-08T07:57:37.649Z,15.9
2022-10-08T07:58:54.753Z,15.5
2022-10-08T08:00:11.857Z,15.4
2022-10-08T08:01:28.962Z,14.9
2022-10-08T08:02:45.083Z,15.2
2022-10-08T08:04:02.187Z,15.3
2022-10-08T08:05:19.291Z,14.8
2022-10-08T08:06:36.395Z,15.5
2022-10-08T08:07:53.500Z,15.1
2022-10-08T08:09:10.604Z,15.3
2022-10-08T08:10:27.709Z,15.3
2022-10-08T08:11:44.813Z,15.9
2022-10-08T08:13:01.915Z,16
2022-10-08T08:14:19.019Z,16.1
2022-10-08T08:15:36.123Z,15.7
2022-10-08T08:16:53.228Z,15.1
2022-10-08T08:18:10.333Z,16.1
2022-10-08T08:19:26.453Z,16
2022-10-08T08:20:43.557Z,16.7
2022-10-08T08:22:00.662Z,16.6
2022-10-08T08:23:17.766Z,16.6
2022-10-08T08:24:34.870Z,16.5
2022-10-08T08:25:51.974Z,15.8
2022-10-08T08:27:09.078Z,16.5
2022-10-08T08:28:26.182Z,16.5
2022-10-08T08:29:43.287Z,15.7
2022-10-08T08:31:00.391Z,15.6
2022-10-08T08:32:17.495Z,15.5
2022-10-08T08:33:34.599Z,16.4
2022-10-08T08:34:51.703Z,16.2
2022-10-08T08:36:07.824Z,16.3
2022-10-08T08:37:24.928Z,17.4
2022-10-08T08:38:42.032Z,17.9
2022-10-08T08:39:59.137Z,16.3
2022-10-08T08:41:16.242Z,15.9
2022-10-08T08:42:33.346Z,15.3
2022-10-08T08:43:50.450Z,15.9
2022-10-08T08:45:07.554Z,15.9
2022-10-08T08:46:24.658Z,15.3
2022-10-08T08:47:41.762Z,15.9
2022-10-08T08:48:58.866Z,15.3
2022-10-08T08:50:15.970Z,14.9
2022-10-08T08:51:33.075Z,14.9
2022-10-08T08:52:49.195Z,14.8
2022-10-08T08:54:06.299Z,16.9
2022-10-08T08:55:23.403Z,16
2022-10-08T08:56:40.507Z,15.4
2022-10-08T08:57:57.611Z,14.8
2022-10-08T08:59:14.715Z,15.8
2022-10-08T09:00:31.819Z,18
2022-10-08T09:01:48.923Z,18
2022-10-08T09:03:06.027Z,15.9
2022-10-08T09:04:23.131Z,15.4
2022-10-08T09:05:40.236Z,15.9
2022-10-08T09:06:57.340Z,16.6
2022-10-08T09:08:14.444Z,16.3
2022-10-08T09:09:30.564Z,15.9
2022-10-08T09:10:47.668Z,15.9
2022-10-08T09:12:04.772Z,17.2
2022-10-08T09:13:21.876Z,15.3
2022-10-08T09:14:38.981Z,15.4
2022-10-08T09:15:56.085Z,16.7
2022-10-08T09:17:13.189Z,16.2
2022-10-08T09:18:30.293Z,16.2
2022-10-08T09:19:47.397Z,17
2022-10-08T09:21:04.501Z,17.5
2022-10-08T09:22:21.605Z,15.9
2022-10-08T09:23:38.709Z,17.7
2022-10-08T09:24:55.814Z,17.1
2022-10-08T09:26:11.934Z,15.5
2022-10-08T09:27:29.038Z,16.1
2022-10-08T09:28:46.143Z,16.4
2022-10-08T09:30:03.248Z,15.2
2022-10-08T09:31:20.352Z,14.1
2022-10-08T09:32:37.456Z,16.7
2022-10-08T09:33:54.561Z,13.6
2022-10-08T09:35:11.665Z,13.7
2022-10-08T09:36:28.769Z,12.3
2022-10-08T09:37:45.873Z,13
2022-10-08T09:39:02.977Z,13.1
2022-10-08T09:40:20.081Z,15.8
2022-10-08T09:41:37.185Z,15.2
2022-10-08T09:42:53.305Z,13
2022-10-08T09:44:10.409Z,13.1
2022-10-08T09:45:27.513Z,15.6
2022-10-08T09:46:44.617Z,14
2022-10-08T09:48:01.722Z,12.4
2022-10-08T09:49:18.826Z,11.5
2022-10-08T09:50:35.930Z,13.3
2022-10-08T09:51:53.034Z,12.6
2022-10-08T09:53:10.138Z,11.2
2022-10-08T09:54:27.242Z,11.2
2022-10-08T09:55:44.346Z,10.4
2022-10-08T09:57:01.450Z,10.4
2022-10-08T09:58:18.554Z,10.4
2022-10-08T09:59:34.674Z,9.3
2022-10-08T10:00:51.778Z,9.5
2022-10-08T10:02:08.882Z,8.6
2022-10-08T10:03:25.986Z,8.8
2022-10-08T10:04:43.090Z,8.9
2022-10-08T10:06:00.193Z,9
2022-10-08T10:07:17.297Z,9.3
2022-10-08T10:08:34.401Z,8.7
2022-10-08T10:09:51.505Z,9.1
2022-10-08T10:11:08.609Z,9.3
2022-10-08T10:12:25.713Z,9.6
2022-10-08T10:13:42.817Z,9.4
2022-10-08T10:14:59.921Z,9.4
2022-10-08T10:16:16.041Z,9.6
2022-10-08T10:17:33.145Z,9.4
2022-10-08T10:18:50.248Z,9.1
2022-10-08T10:20:07.352Z,9
2022-10-08T10:21:24.457Z,9.4
2022-10-08T10:22:41.560Z,9.4
2022-10-08T10:23:58.664Z,9.7
2022-10-08T10:25:15.768Z,9.5
2022-10-08T10:26:32.872Z,10.1
2022-10-08T10:27:49.976Z,9.3
2022-10-08T10:29:07.080Z,11.8
2022-10-08T10:30:24.184Z,8.1
2022-10-08T10:31:41.288Z,10.8
2022-10-08T10:32:57.408Z,11.1
2022-10-08T10:34:14.512Z,7.7
2022-10-08T10:35:31.616Z,9.3
2022-10-08T10:36:48.720Z,10.9
2022-10-08T10:38:05.824Z,11.2
2022-10-08T10:39:22.927Z,9.9
2022-10-08T10:40:40.031Z,11.3
2022-10-08T10:41:57.135Z,11.5
2022-10-08T10:43:14.239Z,10.6
2022-10-08T10:44:31.343Z,11.2
2022-10-08T10:45:48.447Z,12
2022-10-08T10:47:05.551Z,10.2
2022-10-08T10:48:22.655Z,11.6
2022-10-08T10:49:38.775Z,11.8
2022-10-08T10:50:55.879Z,9.5
2022-10-08T10:52:12.983Z,11.5
2022-10-08T10:53:30.086Z,11.2
2022-10-08T10:54:47.191Z,9
2022-10-08T10:56:04.296Z,9.7
2022-10-08T10:57:21.399Z,8.9
2022-10-08T10:58:38.503Z,8.4
2022-10-08T10:59:55.607Z,8.2
2022-10-08T11:01:12.711Z,10.6
2022-10-08T11:02:29.815Z,9.7
2022-10-08T11:03:46.919Z,7.8
2022-10-08T11:05:04.023Z,8.7
2022-10-08T11:06:20.143Z,8.6
2022-10-08T11:07:37.247Z,8.5
2022-10-08T11:08:54.351Z,7.8
2022-10-08T11:10:11.455Z,7.6
2022-10-08T11:11:28.559Z,8.9
2022-10-08T11:12:45.662Z,8.8
2022-10-08T11:14:01.783Z,8.1
2022-10-08T11:15:18.887Z,8
2022-10-08T11:16:35.991Z,8.2
2022-10-08T11:17:53.095Z,10.2
2022-10-08T11:19:10.199Z,9
2022-10-08T11:20:27.304Z,8.9
2022-10-08T11:21:44.408Z,10.2
2022-10-08T11:23:01.512Z,9.3
2022-10-08T11:24:18.616Z,9.1
2022-10-08T11:25:35.720Z,9.5
2022-10-08T11:26:52.824Z,9.9
2022-10-08T11:28:09.929Z,9.5
2022-10-08T11:29:27.033Z,9.7
2022-10-08T11:30:43.153Z,10.1
2022-10-08T11:32:00.257Z,9
2022-10-08T11:33:17.362Z,9.1
2022-10-08T11:34:34.466Z,8.6
2022-10-08T11:35:51.570Z,10.2
2022-10-08T11:37:08.674Z,9.5
2022-10-08T11:38:25.778Z,10
2022-10-08T11:39:42.882Z,9.9
2022-10-08T11:40:59.986Z,9.1
2022-10-08T11:42:17.090Z,9.6
2022-10-08T11:43:34.195Z,9.7
2022-10-08T11:44:51.299Z,10.1
2022-10-08T11:46:08.403Z,10.2
2022-10-08T11:47:24.523Z,9.9
2022-10-08T11:48:41.628Z,9.1
2022-10-08T11:49:58.732Z,9.1
2022-10-08T11:51:15.836Z,9.1
2022-10-08T11:52:32.939Z,8.7
2022-10-08T11:53:50.043Z,9
2022-10-08T11:55:07.147Z,8.7
2022-10-08T11:56:24.251Z,8.9
2022-10-08T11:57:41.355Z,8.7
2022-10-08T11:58:58.459Z,8.6
2022-10-08T12:00:15.562Z,8.8
2022-10-08T12:01:32.666Z,8.6
2022-10-08T12:02:49.770Z,8.7
2022-10-08T12:04:05.890Z,8.6
2022-10-08T12:05:22.994Z,9
2022-10-08T12:06:40.098Z,8.6
2022-10-08T12:07:57.202Z,8.4
2022-10-08T12:09:14.306Z,8.6
2022-10-08T12:10:31.410Z,8.2
2022-10-08T12:11:48.513Z,8.3
2022-10-08T12:13:05.617Z,8.4
2022-10-08T12:14:22.722Z,8.3
2022-10-08T12:15:39.824Z,8.2
2022-10-08T12:16:56.928Z,8.4
2022-10-08T12:18:14.032Z,8.1
2022-10-08T12:19:31.136Z,8.3
2022-10-08T12:20:47.256Z,8.5
2022-10-08T12:22:04.360Z,8.2
2022-10-08T12:23:21.464Z,8.5
2022-10-08T12:24:38.568Z,8.7
2022-10-08T12:25:55.672Z,8.8
2022-10-08T12:27:12.776Z,8.6
2022-10-08T12:28:29.880Z,8.7
2022-10-08T12:29:46.983Z,8.9
2022-10-08T12:31:04.087Z,8.8
2022-10-08T12:32:21.191Z,8.6
2022-10-08T12:33:38.295Z,8.7
2022-10-08T12:34:55.400Z,8.7
2022-10-08T12:36:12.504Z,7.9
2022-10-08T12:37:28.624Z,8
2022-10-08T12:38:45.727Z,7.8
2022-10-08T12:40:02.831Z,7.6
2022-10-08T12:41:19.935Z,7.7
2022-10-08T12:42:37.039Z,7.7
2022-10-08T12:43:54.143Z,8
2022-10-08T12:45:11.247Z,7.8
2022-10-08T12:46:28.351Z,8
2022-10-08T12:47:45.454Z,7.8
2022-10-08T12:49:02.558Z,7.9
2022-10-08T12:50:19.662Z,8.1
2022-10-08T12:51:36.766Z,8
2022-10-08T12:52:53.870Z,8.4
2022-10-08T12:54:09.990Z,8.3
2022-10-08T12:55:27.094Z,8.3
2022-10-08T12:56:44.198Z,8
2022-10-08T12:58:01.302Z,7.9
2022-10-08T12:59:18.406Z,8.1
2022-10-08T13:00:35.510Z,8
2022-10-08T13:01:52.614Z,8.5
2022-10-08T13:03:09.717Z,9.1
2022-10-08T13:04:26.821Z,8.7
2022-10-08T13:05:43.925Z,8.8
2022-10-08T13:07:01.029Z,8.3
2022-10-08T13:08:18.133Z,8.2
2022-10-08T13:09:35.237Z,8.4
2022-10-08T13:10:51.357Z,8.2
2022-10-08T13:12:08.461Z,8.2
2022-10-08T13:13:25.565Z,8.2
2022-10-08T13:14:42.669Z,8.3
2022-10-08T13:15:59.772Z,8
2022-10-08T13:17:16.876Z,7.9
2022-10-08T13:18:33.980Z,8
2022-10-08T13:19:51.084Z,7.6
2022-10-08T13:21:08.189Z,7.7
2022-10-08T13:22:25.293Z,7.7
2022-10-08T13:23:42.398Z,7.5
2022-10-08T13:24:59.502Z,7.4
2022-10-08T13:26:16.606Z,7.4
2022-10-08T13:27:32.727Z,7.2
2022-10-08T13:28:49.831Z,6.9
2022-10-08T13:30:06.936Z,7.8
2022-10-08T13:31:24.040Z,7.8
2022-10-08T13:32:41.145Z,7.8
2022-10-08T13:33:58.249Z,7.4
2022-10-08T13:35:15.353Z,7.3
2022-10-08T13:36:32.458Z,7.4
2022-10-08T13:37:49.562Z,7.6
2022-10-08T13:39:06.667Z,7.4
2022-10-08T13:40:23.769Z,7.4
2022-10-08T13:41:40.874Z,8
2022-10-08T13:42:57.978Z,7.4
2022-10-08T13:44:14.099Z,8
2022-10-08T13:45:31.204Z,8.9
2022-10-08T13:46:48.308Z,8.9
2022-10-08T13:48:05.413Z,8.2
2022-10-08T13:49:22.517Z,7.6
2022-10-08T13:50:39.622Z,8.2
2022-10-08T13:51:56.726Z,8
2022-10-08T13:53:13.831Z,8.2
2022-10-08T13:54:30.936Z,7.9
2022-10-08T13:55:48.040Z,7.2
2022-10-08T13:57:05.145Z,7.4
2022-10-08T13:58:22.249Z,7.4
2022-10-08T13:59:39.353Z,7.2
2022-10-08T14:00:55.473Z,7.3
2022-10-08T14:02:12.578Z,7.3
2022-10-08T14:03:29.682Z,7.3
2022-10-08T14:04:46.787Z,6.9
2022-10-08T14:06:03.891Z,7.3
2022-10-08T14:07:20.996Z,7.3
2022-10-08T14:08:38.100Z,7.7
2022-10-08T14:09:55.204Z,7.7
2022-10-08T14:11:12.309Z,7.6
2022-10-08T14:12:29.413Z,7.5
2022-10-08T14:13:46.518Z,7.4
2022-10-08T14:15:03.622Z,7.6
2022-10-08T14:16:20.727Z,7.1
2022-10-08T14:17:36.847Z,7.2
2022-10-08T14:18:53.952Z,7
2022-10-08T14:20:11.056Z,6.8
2022-10-08T14:21:28.161Z,7.3
2022-10-08T14:22:45.265Z,7.8
2022-10-08T14:24:02.369Z,7.5
2022-10-08T14:25:19.474Z,7.1
2022-10-08T14:26:36.578Z,7.1
2022-10-08T14:27:53.683Z,7.2
2022-10-08T14:29:10.788Z,7.3
2022-10-08T14:30:27.892Z,7.5
2022-10-08T14:31:44.996Z,7.7
2022-10-08T14:33:02.100Z,7.4
2022-10-08T14:34:18.220Z,7.3
2022-10-08T14:35:35.324Z,8
2022-10-08T14:36:52.429Z,7.8
2022-10-08T14:38:09.533Z,7.8
2022-10-08T14:39:26.637Z,7.5
2022-10-08T14:40:43.742Z,7.7
2022-10-08T14:42:00.846Z,7
2022-10-08T14:43:17.950Z,7.1
2022-10-08T14:44:35.054Z,7.3
2022-10-08T14:45:52.157Z,7.1
2022-10-08T14:47:09.261Z,7.2
2022-10-08T14:48:26.365Z,7.1
2022-10-08T14:49:43.469Z,7.4
2022-10-08T14:50:59.589Z,7.2
2022-10-08T14:52:16.693Z,7.4
2022-10-08T14:53:33.797Z,7.3
2022-10-08T14:54:50.901Z,7.1
2022-10-08T14:56:08.005Z,7.1
2022-10-08T14:57:25.109Z,6.8
2022-10-08T14:58:42.212Z,7.2
2022-10-08T14:59:59.317Z,7
2022-10-08T15:01:16.422Z,6.9
2022-10-08T15:02:33.525Z,6.8
2022-10-08T15:03:50.629Z,7
2022-10-08T15:05:07.733Z,7.3
2022-10-08T15:06:24.837Z,7
2022-10-08T15:07:40.957Z,7.9
2022-10-08T15:08:58.061Z,7.8
2022-10-08T15:10:15.165Z,7.9
2022-10-08T15:11:32.270Z,7.5
2022-10-08T15:12:49.374Z,7.4
2022-10-08T15:14:06.478Z,7.4
2022-10-08T15:15:23.582Z,6.9
2022-10-08T15:16:40.686Z,7
2022-10-08T15:17:57.790Z,7.1
2022-10-08T15:19:14.894Z,7
2022-10-08T15:20:31.997Z,7.3
2022-10-08T15:21:49.102Z,6.9
2022-10-08T15:23:06.206Z,7
2022-10-08T15:24:22.326Z,7.3
2022-10-08T15:25:39.430Z,7.4
2022-10-08T15:26:56.535Z,7.2
2022-10-08T15:28:13.638Z,7.1
2022-10-08T15:29:30.742Z,7
2022-10-08T15:30:47.846Z,7.2
2022-10-08T15:32:03.966Z,7.3
2022-10-08T15:33:21.070Z,6.9
2022-10-08T15:34:38.174Z,6.8
2022-10-08T15:35:55.278Z,7.4
2022-10-08T15:37:12.382Z,7.6
2022-10-08T15:38:29.486Z,7.4
2022-10-08T15:39:46.590Z,8
2022-10-08T15:41:03.694Z,8.2
2022-10-08T15:42:20.798Z,7.7
2022-10-08T15:43:37.901Z,7.6
2022-10-08T15:44:55.006Z,7.3
2022-10-08T15:46:12.110Z,7.2
2022-10-08T15:47:29.213Z,7.2
2022-10-08T15:48:45.334Z,7.1
2022-10-08T15:50:02.437Z,7.1
2022-10-08T15:51:19.542Z,7.3
2022-10-08T15:52:36.645Z,7.2
2022-10-08T15:53:53.749Z,7
2022-10-08T15:55:10.853Z,7.3
2022-10-08T15:56:27.958Z,7.8
2022-10-08T15:57:45.062Z,7.7
2022-10-08T15:59:02.167Z,8.1
2022-10-08T16:00:19.271Z,8
2022-10-08T16:01:36.376Z,7.8
2022-10-08T16:02:53.480Z,7.6
2022-10-08T16:04:10.585Z,7.8
2022-10-08T16:05:26.705Z,7.8
2022-10-08T16:06:43.810Z,7.4
2022-10-08T16:08:00.914Z,7.6
2022-10-08T16:09:18.018Z,7.1
2022-10-08T16:10:35.122Z,7.4
2022-10-08T16:11:52.227Z,7.9
2022-10-08T16:13:09.331Z,7.7
2022-10-08T16:14:26.435Z,7.6
2022-10-08T16:15:43.539Z,7.7
2022-10-08T16:17:00.643Z,7.7
2022-10-08T16:18:17.748Z,7.7
2022-10-08T16:19:34.850Z,7.9
2022-10-08T16:20:51.955Z,7.6
2022-10-08T16:22:08.075Z,7.9
2022-10-08T16:23:25.179Z,7.6
2022-10-08T16:24:42.284Z,7.8
2022-10-08T16:25:59.388Z,7.7
2022-10-08T16:27:16.492Z,7.9
2022-10-08T16:28:33.597Z,8.1
2022-10-08T16:29:50.702Z,8
2022-10-08T16:31:07.806Z,8
2022-10-08T16:32:24.911Z,7.9
2022-10-08T16:33:42.015Z,7.7
2022-10-08T16:34:59.119Z,7.8
2022-10-08T16:36:16.223Z,7.8
2022-10-08T16:37:33.327Z,7.2
2022-10-08T16:38:49.448Z,7.6
2022-10-08T16:40:06.552Z,7.3
2022-10-08T16:41:23.656Z,7.2
2022-10-08T16:42:40.760Z,7.6
2022-10-08T16:43:57.865Z,7.7
2022-10-08T16:45:14.969Z,7.8
2022-10-08T16:46:32.073Z,7.8
2022-10-08T16:47:49.177Z,7.3
2022-10-08T16:49:06.281Z,7.8
2022-10-08T16:50:23.386Z,7.9
2022-10-08T16:51:40.490Z,7.8
2022-10-08T16:52:57.594Z,8.1
2022-10-08T16:54:14.699Z,6.8
2022-10-08T16:55:30.819Z,7.7
2022-10-08T16:56:47.923Z,7.5
2022-10-08T16:58:05.027Z,7.2
2022-10-08T16:59:22.130Z,7.2
2022-10-08T17:00:39.234Z,7.2
2022-10-08T17:01:56.338Z,7.8
2022-10-08T17:03:13.443Z,8.3
2022-10-08T17:04:30.547Z,8.4
2022-10-08T17:05:47.651Z,8.4
2022-10-08T17:07:04.756Z,8.1
2022-10-08T17:08:21.860Z,8.1
2022-10-08T17:09:38.964Z,8
2022-10-08T17:10:56.068Z,8.3
2022-10-08T17:12:12.189Z,8.3
2022-10-08T17:13:29.293Z,8
2022-10-08T17:14:46.398Z,7.8
2022-10-08T17:16:03.502Z,8.8
2022-10-08T17:17:20.606Z,8.1
2022-10-08T17:18:37.711Z,8.2
2022-10-08T17:19:54.815Z,9.6
2022-10-08T17:21:11.920Z,10.1
2022-10-08T17:22:29.024Z,9.5
2022-10-08T17:23:46.129Z,10.4
2022-10-08T17:25:03.234Z,9.7
2022-10-08T17:26:20.338Z,11.8
2022-10-08T17:27:37.443Z,13.4